Αναφορές METAR Αεροδρομίων

 

LGTS - THESSALONIKI - GREECE
Ενημερώθηκε: 10/12/2019 20:50
Ασθενής βροχή, Σχεδόν νεφελώδης
Ασθενής βροχή, Σχεδόν νεφελώδης
 Ανεμος από Α
Ανεμος: Α 15 km/h
Θερμοκρασία: 11°C
Σημ. Δρόσου: 8°C
Υγρασία: 82%
Βαρόμετρο: 1011 hPa
Περίληψη: Ασθενής βροχή
Clouds: Σχεδόν νεφελώδης
Visibility: 10 km
Cloud details: Αραιές Νεφώσεις 610 m
Σχεδόν νεφελώδης 762 m
2019/12/10 18:50 LGTS 101850Z 10008KT 9999 -RA FEW020TCU BKN025 11/08 Q1011 WS R16 NOSIG
LGLR - LARTISA - GREECE
Ενημερώθηκε: 10/12/2019 20:50
Ασθενής βροχή, Mist, Συννεφιά
Ασθενής βροχή, Mist, Συννεφιά
 Ανεμος από calm
Ανεμος: Απνοια
Θερμοκρασία: 9°C
Σημ. Δρόσου: 9°C
Υγρασία: 100%
Βαρόμετρο: 1008 hPa
Περίληψη: Ασθενής βροχή, Mist
Clouds: Συννεφιά
Visibility: 3 km
Cloud details: Αραιές Νεφώσεις 305 m
Σχεδόν νεφελώδης 762 m
Συννεφιά 2438 m
2019/12/10 18:50 LGLR 101850Z 00000KT 3000 -RA BR FEW010 BKN025 OVC080 09/09 Q1008 YLO
 
LGKZ - KOZANI - GREECE
Ενημερώθηκε: 10/12/2019 20:50
Ασθενής βροχή
Ασθενής βροχή
 Ανεμος από Β
Ανεμος: Β 15 km/h
Θερμοκρασία: 6°C
Wind Chill: 3°C
Σημ. Δρόσου: 6°C
Υγρασία: 100%
Βαρόμετρο: 1009 hPa
Περίληψη: Ασθενής βροχή
2019/12/10 18:50 LGKZ 101850Z AUTO 35008KT 320V020 //// -RA ////// 06/06 Q1009 RE//
LGKV - KAVALA - GREECE
Ενημερώθηκε: 10/12/2019 20:50
Συννεφιά
Συννεφιά
 Ανεμος από ΒΑ
Ανεμος: ΒΑ 7 km/h
Θερμοκρασία: 10°C
Wind Chill: 9°C
Σημ. Δρόσου: 8°C
Υγρασία: 88%
Βαρόμετρο: 1012 hPa
Clouds: Συννεφιά
Visibility: 10 km
Cloud details: Μερικώς νεφελώδης 762 m
Συννεφιά 2134 m
2019/12/10 18:50 LGKV 101850Z 04004KT 9999 SCT025 OVC070 10/08 Q1012
 
LGIO - IOANNINA - GREECE
Ενημερώθηκε: 10/12/2019 20:50
Ασθενής βροχή
Ασθενής βροχή
 Ανεμος από Β
Ανεμος: Β 11 km/h
Θερμοκρασία: 8°C
Wind Chill: 6°C
Σημ. Δρόσου: 7°C
Υγρασία: 93%
Βαρόμετρο: 1006 hPa
Περίληψη: Ασθενής βροχή
2019/12/10 18:50 LGIO 101850Z AUTO 35006KT 280V360 //// -RA ////// 08/07 Q1006 RE//
LGBL - BOLOS - GREECE
Ενημερώθηκε: 10/12/2019 20:50
Ασθενής βροχή, Συννεφιά
Ασθενής βροχή, Συννεφιά
 Ανεμος από ΔΝΔ
Ανεμος: ΔΝΔ 9 km/h
Θερμοκρασία: 10°C
Wind Chill: 9°C
Σημ. Δρόσου: 9°C
Υγρασία: 94%
Βαρόμετρο: 1007 hPa
Περίληψη: Ασθενής βροχή
Clouds: Συννεφιά
Visibility: 5 km
Cloud details: Αραιές Νεφώσεις 366 m
Μερικώς νεφελώδης 762 m
Συννεφιά 2438 m
2019/12/10 18:50 LGBL 101850Z 25005KT 5000 -RA FEW012 SCT025 OVC080 10/09 Q1007
 
LGMT - MITILINI - GREECE
Ενημερώθηκε: 10/12/2019 20:50
Μερικώς νεφελώδης
Μερικώς νεφελώδης
 Ανεμος από ΑΝΑ
Ανεμος: ΑΝΑ 15 km/h
Θερμοκρασία: 15°C
Σημ. Δρόσου: 9°C
Υγρασία: 68%
Βαρόμετρο: 1011 hPa
Clouds: Μερικώς νεφελώδης
Visibility: 10 km
Cloud details: Μερικώς νεφελώδης 762 m
2019/12/10 18:50 LGMT 101850Z 12008KT 040V150 9999 SCT025 15/09 Q1011
LGAV - ATHENS - GREECE
Ενημερώθηκε: 10/12/2019 20:50
Σχεδόν νεφελώδης
Σχεδόν νεφελώδης
 Ανεμος από ΒΑ
Ανεμος: ΒΑ 9 km/h
Θερμοκρασία: 13°C
Σημ. Δρόσου: 11°C
Υγρασία: 88%
Βαρόμετρο: 1006 hPa
Clouds: Σχεδόν νεφελώδης
Visibility: 10 km
Cloud details: Αραιές Νεφώσεις 305 m
Αραιές Νεφώσεις 457 m
Σχεδόν νεφελώδης 762 m
2019/12/10 18:50 LGAV 101850Z 04005KT 9999 FEW010 FEW015TCU BKN025 13/11 Q1006 BECMG TSRA
 
LGRP - RODOS - GREECE
Ενημερώθηκε: 10/12/2019 20:50
Μερικώς νεφελώδης
Μερικώς νεφελώδης
 Ανεμος από ΑΝΑ
Ανεμος: ΑΝΑ 9 km/h
Θερμοκρασία: 17°C
Σημ. Δρόσου: 12°C
Υγρασία: 73%
Βαρόμετρο: 1010 hPa
Clouds: Μερικώς νεφελώδης
Visibility: 10 km
Cloud details: Αραιές Νεφώσεις 549 m
Μερικώς νεφελώδης 762 m
2019/12/10 18:50 LGRP 101850Z 12005KT 060V180 9999 FEW018 SCT025 17/12 Q1010 NOSIG
LGIR - HRAKLIO/KRITI - GREECE
Ενημερώθηκε: 10/12/2019 20:50
Σχεδόν νεφελώδης
Σχεδόν νεφελώδης
 Ανεμος από ΝΑ
Ανεμος: ΝΑ 13 km/h
Θερμοκρασία: 16°C
Σημ. Δρόσου: 14°C
Υγρασία: 88%
Βαρόμετρο: 1006 hPa
Clouds: Σχεδόν νεφελώδης
Visibility: 10 km
Cloud details: Μερικώς νεφελώδης 762 m
Σχεδόν νεφελώδης 2438 m
2019/12/10 18:50 LGIR 101850Z 13007KT 9999 SCT025 BKN080 16/14 Q1006 NOSIG
 
LGMK - MIKONOS - GREECE
Ενημερώθηκε: 10/12/2019 19:50
NOT Current
Μερικώς νεφελώδης
Μερικώς νεφελώδης
 Ανεμος από ΑΝΑ
Ανεμος: ΑΝΑ 26 km/h, Ριπή: 44 km/h
Θερμοκρασία: 15°C
Σημ. Δρόσου: 9°C
Υγρασία: 68%
Βαρόμετρο: 1007 hPa
Clouds: Μερικώς νεφελώδης
Visibility: 10 km
Cloud details: Αραιές Νεφώσεις 549 m
Μερικώς νεφελώδης 914 m
2019/12/10 17:50 LGMK 101750Z 12014G24KT 9999 FEW018 SCT030 15/09 Q1007
LGKR - KERKIRA - GREECE
Ενημερώθηκε: 10/12/2019 20:50
Σχεδόν νεφελώδης
Σχεδόν νεφελώδης
 Ανεμος από ΒΑ
Ανεμος: ΒΑ 7 km/h
Θερμοκρασία: 13°C
Σημ. Δρόσου: 11°C
Υγρασία: 88%
Βαρόμετρο: 1005 hPa
Clouds: Σχεδόν νεφελώδης
Visibility: 10 km
Cloud details: Μερικώς νεφελώδης 549 m
Μερικώς νεφελώδης 762 m
Σχεδόν νεφελώδης 2438 m
2019/12/10 18:50 LGKR 101850Z 04004KT 9999 SCT018 SCT025 BKN080 13/11 Q1005 TEMPO RA